sensor_id;sensor_type;location;lat;lon;timestamp;P1;durP1;ratioP1;P2;durP2;ratioP2
86601;SDS011;77266;52.284;20.890;2024-03-17T00:00:03;6.20;;;2.90;;
86601;SDS011;77266;52.284;20.890;2024-03-17T00:02:39;5.70;;;2.60;;
86601;SDS011;77266;52.284;20.890;2024-03-17T00:05:10;4.80;;;2.40;;
86601;SDS011;77266;52.284;20.890;2024-03-17T00:07:42;6.60;;;2.30;;
86601;SDS011;77266;52.284;20.890;2024-03-17T00:10:14;5.80;;;2.60;;
86601;SDS011;77266;52.284;20.890;2024-03-17T00:12:51;5.10;;;2.60;;
86601;SDS011;77266;52.284;20.890;2024-03-17T00:15:21;5.50;;;2.40;;
86601;SDS011;77266;52.284;20.890;2024-03-17T00:17:52;6.30;;;2.80;;
86601;SDS011;77266;52.284;20.890;2024-03-17T00:20:22;6.20;;;2.60;;
86601;SDS011;77266;52.284;20.890;2024-03-17T00:22:55;4.70;;;2.50;;
86601;SDS011;77266;52.284;20.890;2024-03-17T00:25:27;6.50;;;2.60;;
86601;SDS011;77266;52.284;20.890;2024-03-17T00:28:01;6.30;;;2.70;;
86601;SDS011;77266;52.284;20.890;2024-03-17T00:30:33;5.20;;;2.40;;
86601;SDS011;77266;52.284;20.890;2024-03-17T00:33:06;6.00;;;2.60;;
86601;SDS011;77266;52.284;20.890;2024-03-17T00:35:38;5.40;;;2.30;;
86601;SDS011;77266;52.284;20.890;2024-03-17T00:38:10;7.10;;;2.60;;
86601;SDS011;77266;52.284;20.890;2024-03-17T00:40:40;6.50;;;2.10;;
86601;SDS011;77266;52.284;20.890;2024-03-17T00:43:13;5.90;;;2.10;;
86601;SDS011;77266;52.284;20.890;2024-03-17T00:45:44;4.80;;;1.90;;
86601;SDS011;77266;52.284;20.890;2024-03-17T00:48:23;6.20;;;2.40;;
86601;SDS011;77266;52.284;20.890;2024-03-17T00:50:57;5.50;;;2.10;;
86601;SDS011;77266;52.284;20.890;2024-03-17T00:53:30;4.80;;;2.30;;
86601;SDS011;77266;52.284;20.890;2024-03-17T00:56:03;5.20;;;2.00;;
86601;SDS011;77266;52.284;20.890;2024-03-17T00:58:35;6.20;;;2.10;;
86601;SDS011;77266;52.284;20.890;2024-03-17T01:01:09;6.00;;;2.30;;
86601;SDS011;77266;52.284;20.890;2024-03-17T01:03:43;6.30;;;2.20;;
86601;SDS011;77266;52.284;20.890;2024-03-17T01:06:16;5.40;;;2.00;;
86601;SDS011;77266;52.284;20.890;2024-03-17T01:08:49;5.70;;;1.90;;
86601;SDS011;77266;52.284;20.890;2024-03-17T01:11:21;5.70;;;2.10;;
86601;SDS011;77266;52.284;20.890;2024-03-17T01:13:53;5.10;;;2.20;;
86601;SDS011;77266;52.284;20.890;2024-03-17T01:16:23;6.10;;;2.30;;
86601;SDS011;77266;52.284;20.890;2024-03-17T01:18:55;6.20;;;2.20;;
86601;SDS011;77266;52.284;20.890;2024-03-17T01:21:25;5.70;;;1.80;;
86601;SDS011;77266;52.284;20.890;2024-03-17T01:23:59;4.90;;;2.00;;
86601;SDS011;77266;52.284;20.890;2024-03-17T01:26:29;4.70;;;2.00;;
86601;SDS011;77266;52.284;20.890;2024-03-17T01:29:00;5.30;;;2.10;;
86601;SDS011;77266;52.284;20.890;2024-03-17T01:31:31;3.60;;;1.70;;
86601;SDS011;77266;52.284;20.890;2024-03-17T01:34:02;7.00;;;2.00;;
86601;SDS011;77266;52.284;20.890;2024-03-17T01:36:33;5.00;;;2.10;;
86601;SDS011;77266;52.284;20.890;2024-03-17T01:39:08;5.20;;;1.90;;
86601;SDS011;77266;52.284;20.890;2024-03-17T01:41:39;4.80;;;2.00;;
86601;SDS011;77266;52.284;20.890;2024-03-17T01:44:12;4.30;;;1.90;;
86601;SDS011;77266;52.284;20.890;2024-03-17T01:46:57;4.60;;;2.10;;
86601;SDS011;77266;52.284;20.890;2024-03-17T01:49:28;4.90;;;1.80;;
86601;SDS011;77266;52.284;20.890;2024-03-17T01:52:00;5.20;;;2.10;;
86601;SDS011;77266;52.284;20.890;2024-03-17T01:54:35;4.30;;;1.90;;
86601;SDS011;77266;52.284;20.890;2024-03-17T01:57:13;4.80;;;1.60;;
86601;SDS011;77266;52.284;20.890;2024-03-17T01:59:46;5.40;;;2.10;;
86601;SDS011;77266;52.284;20.890;2024-03-17T02:02:19;4.10;;;1.90;;
86601;SDS011;77266;52.284;20.890;2024-03-17T02:04:50;5.20;;;2.10;;
86601;SDS011;77266;52.284;20.890;2024-03-17T02:07:25;5.10;;;2.30;;
86601;SDS011;77266;52.284;20.890;2024-03-17T02:09:56;4.70;;;1.80;;
86601;SDS011;77266;52.284;20.890;2024-03-17T02:12:28;5.80;;;2.00;;
86601;SDS011;77266;52.284;20.890;2024-03-17T02:14:59;5.80;;;2.00;;
86601;SDS011;77266;52.284;20.890;2024-03-17T02:17:32;3.90;;;1.80;;
86601;SDS011;77266;52.284;20.890;2024-03-17T02:20:04;6.00;;;1.90;;
86601;SDS011;77266;52.284;20.890;2024-03-17T02:22:37;6.00;;;2.00;;
86601;SDS011;77266;52.284;20.890;2024-03-17T02:25:09;4.10;;;1.90;;
86601;SDS011;77266;52.284;20.890;2024-03-17T02:27:40;5.80;;;2.50;;
86601;SDS011;77266;52.284;20.890;2024-03-17T02:30:16;4.50;;;1.80;;
86601;SDS011;77266;52.284;20.890;2024-03-17T02:32:52;5.10;;;2.00;;
86601;SDS011;77266;52.284;20.890;2024-03-17T02:35:24;4.80;;;2.00;;
86601;SDS011;77266;52.284;20.890;2024-03-17T02:37:55;5.90;;;2.00;;
86601;SDS011;77266;52.284;20.890;2024-03-17T02:40:26;6.50;;;2.10;;
86601;SDS011;77266;52.284;20.890;2024-03-17T02:42:59;4.70;;;1.70;;
86601;SDS011;77266;52.284;20.890;2024-03-17T02:45:30;5.80;;;1.90;;
86601;SDS011;77266;52.284;20.890;2024-03-17T02:48:02;5.90;;;1.90;;
86601;SDS011;77266;52.284;20.890;2024-03-17T02:50:35;5.00;;;2.00;;
86601;SDS011;77266;52.284;20.890;2024-03-17T02:53:08;6.30;;;1.90;;
86601;SDS011;77266;52.284;20.890;2024-03-17T02:55:38;6.30;;;2.10;;
86601;SDS011;77266;52.284;20.890;2024-03-17T02:58:09;5.70;;;2.20;;
86601;SDS011;77266;52.284;20.890;2024-03-17T03:00:42;5.90;;;2.10;;
86601;SDS011;77266;52.284;20.890;2024-03-17T03:03:12;7.50;;;2.30;;
86601;SDS011;77266;52.284;20.890;2024-03-17T03:05:46;6.20;;;2.00;;
86601;SDS011;77266;52.284;20.890;2024-03-17T03:08:18;8.40;;;2.70;;
86601;SDS011;77266;52.284;20.890;2024-03-17T03:10:51;6.30;;;2.00;;
86601;SDS011;77266;52.284;20.890;2024-03-17T03:13:21;6.20;;;2.10;;
86601;SDS011;77266;52.284;20.890;2024-03-17T03:15:52;7.00;;;2.30;;
86601;SDS011;77266;52.284;20.890;2024-03-17T03:18:25;8.50;;;2.20;;
86601;SDS011;77266;52.284;20.890;2024-03-17T03:20:56;4.00;;;1.60;;
86601;SDS011;77266;52.284;20.890;2024-03-17T03:23:28;6.70;;;2.10;;
86601;SDS011;77266;52.284;20.890;2024-03-17T03:26:03;8.30;;;2.60;;
86601;SDS011;77266;52.284;20.890;2024-03-17T03:28:36;7.60;;;2.50;;
86601;SDS011;77266;52.284;20.890;2024-03-17T03:31:07;7.10;;;2.30;;
86601;SDS011;77266;52.284;20.890;2024-03-17T03:33:45;8.30;;;2.10;;
86601;SDS011;77266;52.284;20.890;2024-03-17T03:36:15;6.70;;;2.20;;
86601;SDS011;77266;52.284;20.890;2024-03-17T03:38:48;7.90;;;2.10;;
86601;SDS011;77266;52.284;20.890;2024-03-17T03:41:19;6.20;;;2.40;;
86601;SDS011;77266;52.284;20.890;2024-03-17T03:43:51;7.30;;;2.30;;
86601;SDS011;77266;52.284;20.890;2024-03-17T03:46:22;5.50;;;2.20;;
86601;SDS011;77266;52.284;20.890;2024-03-17T03:48:53;4.60;;;2.00;;
86601;SDS011;77266;52.284;20.890;2024-03-17T03:51:30;9.20;;;2.40;;
86601;SDS011;77266;52.284;20.890;2024-03-17T03:54:00;5.90;;;2.20;;
86601;SDS011;77266;52.284;20.890;2024-03-17T03:56:33;6.80;;;2.30;;
86601;SDS011;77266;52.284;20.890;2024-03-17T03:59:04;7.20;;;2.30;;
86601;SDS011;77266;52.284;20.890;2024-03-17T04:01:36;6.60;;;2.30;;
86601;SDS011;77266;52.284;20.890;2024-03-17T04:04:07;4.90;;;2.10;;
86601;SDS011;77266;52.284;20.890;2024-03-17T04:06:39;6.80;;;2.10;;
86601;SDS011;77266;52.284;20.890;2024-03-17T04:09:12;6.20;;;2.00;;
86601;SDS011;77266;52.284;20.890;2024-03-17T04:11:43;3.50;;;1.80;;
86601;SDS011;77266;52.284;20.890;2024-03-17T04:14:14;4.90;;;1.90;;
86601;SDS011;77266;52.284;20.890;2024-03-17T04:16:45;5.90;;;2.70;;
86601;SDS011;77266;52.284;20.890;2024-03-17T04:19:15;5.70;;;2.10;;
86601;SDS011;77266;52.284;20.890;2024-03-17T04:21:49;6.20;;;1.80;;
86601;SDS011;77266;52.284;20.890;2024-03-17T04:24:19;6.10;;;1.90;;
86601;SDS011;77266;52.284;20.890;2024-03-17T04:26:50;4.40;;;1.80;;
86601;SDS011;77266;52.284;20.890;2024-03-17T04:29:22;6.10;;;2.10;;
86601;SDS011;77266;52.284;20.890;2024-03-17T04:31:52;4.80;;;2.10;;
86601;SDS011;77266;52.284;20.890;2024-03-17T04:34:29;6.80;;;2.10;;
86601;SDS011;77266;52.284;20.890;2024-03-17T04:37:00;6.30;;;2.40;;
86601;SDS011;77266;52.284;20.890;2024-03-17T04:39:35;7.10;;;2.00;;
86601;SDS011;77266;52.284;20.890;2024-03-17T04:42:08;5.70;;;2.10;;
86601;SDS011;77266;52.284;20.890;2024-03-17T04:44:40;6.80;;;2.30;;
86601;SDS011;77266;52.284;20.890;2024-03-17T04:47:12;6.90;;;2.10;;
86601;SDS011;77266;52.284;20.890;2024-03-17T04:49:45;4.20;;;2.00;;
86601;SDS011;77266;52.284;20.890;2024-03-17T04:52:20;7.70;;;2.20;;
86601;SDS011;77266;52.284;20.890;2024-03-17T04:54:55;5.20;;;2.00;;
86601;SDS011;77266;52.284;20.890;2024-03-17T04:57:26;7.20;;;2.50;;
86601;SDS011;77266;52.284;20.890;2024-03-17T04:59:57;5.20;;;2.00;;
86601;SDS011;77266;52.284;20.890;2024-03-17T05:02:27;6.90;;;2.20;;
86601;SDS011;77266;52.284;20.890;2024-03-17T05:05:00;5.10;;;2.00;;
86601;SDS011;77266;52.284;20.890;2024-03-17T05:07:34;5.50;;;1.90;;
86601;SDS011;77266;52.284;20.890;2024-03-17T05:10:06;5.20;;;1.90;;
86601;SDS011;77266;52.284;20.890;2024-03-17T05:12:37;4.10;;;1.90;;
86601;SDS011;77266;52.284;20.890;2024-03-17T05:15:12;5.60;;;2.10;;
86601;SDS011;77266;52.284;20.890;2024-03-17T05:17:47;5.50;;;1.90;;
86601;SDS011;77266;52.284;20.890;2024-03-17T05:20:20;5.50;;;2.50;;
86601;SDS011;77266;52.284;20.890;2024-03-17T05:22:52;5.90;;;2.30;;
86601;SDS011;77266;52.284;20.890;2024-03-17T05:25:22;5.90;;;1.90;;
86601;SDS011;77266;52.284;20.890;2024-03-17T05:27:56;3.60;;;2.00;;
86601;SDS011;77266;52.284;20.890;2024-03-17T05:30:30;5.30;;;1.80;;
86601;SDS011;77266;52.284;20.890;2024-03-17T05:33:05;4.50;;;1.90;;
86601;SDS011;77266;52.284;20.890;2024-03-17T05:35:36;3.50;;;1.70;;
86601;SDS011;77266;52.284;20.890;2024-03-17T05:38:07;5.00;;;2.10;;
86601;SDS011;77266;52.284;20.890;2024-03-17T05:40:38;5.10;;;1.90;;
86601;SDS011;77266;52.284;20.890;2024-03-17T05:43:13;6.90;;;2.20;;
86601;SDS011;77266;52.284;20.890;2024-03-17T05:45:43;3.90;;;1.70;;
86601;SDS011;77266;52.284;20.890;2024-03-17T05:48:13;5.20;;;1.90;;
86601;SDS011;77266;52.284;20.890;2024-03-17T05:50:44;4.10;;;1.80;;
86601;SDS011;77266;52.284;20.890;2024-03-17T05:53:15;5.90;;;2.20;;
86601;SDS011;77266;52.284;20.890;2024-03-17T05:55:45;5.00;;;2.20;;
86601;SDS011;77266;52.284;20.890;2024-03-17T05:58:16;5.60;;;1.90;;
86601;SDS011;77266;52.284;20.890;2024-03-17T06:00:50;5.70;;;2.00;;
86601;SDS011;77266;52.284;20.890;2024-03-17T06:03:21;4.10;;;1.70;;
86601;SDS011;77266;52.284;20.890;2024-03-17T06:05:54;6.40;;;2.00;;
86601;SDS011;77266;52.284;20.890;2024-03-17T06:08:27;7.10;;;2.30;;
86601;SDS011;77266;52.284;20.890;2024-03-17T06:10:58;4.50;;;2.10;;
86601;SDS011;77266;52.284;20.890;2024-03-17T06:13:33;5.70;;;1.90;;
86601;SDS011;77266;52.284;20.890;2024-03-17T06:16:12;4.50;;;1.80;;
86601;SDS011;77266;52.284;20.890;2024-03-17T06:21:13;4.20;;;2.20;;
86601;SDS011;77266;52.284;20.890;2024-03-17T06:23:45;5.90;;;2.10;;
86601;SDS011;77266;52.284;20.890;2024-03-17T06:26:16;4.50;;;2.00;;
86601;SDS011;77266;52.284;20.890;2024-03-17T06:28:50;5.70;;;2.30;;
86601;SDS011;77266;52.284;20.890;2024-03-17T06:31:25;5.00;;;1.80;;
86601;SDS011;77266;52.284;20.890;2024-03-17T06:33:56;4.90;;;2.20;;
86601;SDS011;77266;52.284;20.890;2024-03-17T06:36:28;4.70;;;2.30;;
86601;SDS011;77266;52.284;20.890;2024-03-17T06:39:02;5.60;;;2.40;;
86601;SDS011;77266;52.284;20.890;2024-03-17T06:41:33;4.40;;;1.90;;
86601;SDS011;77266;52.284;20.890;2024-03-17T06:44:06;5.50;;;2.30;;
86601;SDS011;77266;52.284;20.890;2024-03-17T06:46:37;5.20;;;2.00;;
86601;SDS011;77266;52.284;20.890;2024-03-17T06:49:07;6.60;;;2.00;;
86601;SDS011;77266;52.284;20.890;2024-03-17T06:51:40;6.30;;;2.30;;
86601;SDS011;77266;52.284;20.890;2024-03-17T06:54:12;3.30;;;1.70;;
86601;SDS011;77266;52.284;20.890;2024-03-17T06:56:44;4.60;;;2.00;;
86601;SDS011;77266;52.284;20.890;2024-03-17T06:59:16;4.90;;;2.10;;
86601;SDS011;77266;52.284;20.890;2024-03-17T07:01:49;4.70;;;1.80;;
86601;SDS011;77266;52.284;20.890;2024-03-17T07:04:20;6.80;;;2.10;;
86601;SDS011;77266;52.284;20.890;2024-03-17T07:06:53;5.50;;;1.90;;
86601;SDS011;77266;52.284;20.890;2024-03-17T07:09:23;4.40;;;2.00;;
86601;SDS011;77266;52.284;20.890;2024-03-17T07:11:54;3.70;;;1.70;;
86601;SDS011;77266;52.284;20.890;2024-03-17T07:14:25;6.60;;;2.40;;
86601;SDS011;77266;52.284;20.890;2024-03-17T07:16:56;5.60;;;1.90;;
86601;SDS011;77266;52.284;20.890;2024-03-17T07:19:30;5.10;;;2.00;;
86601;SDS011;77266;52.284;20.890;2024-03-17T07:22:01;4.60;;;2.00;;
86601;SDS011;77266;52.284;20.890;2024-03-17T07:24:35;5.20;;;1.90;;
86601;SDS011;77266;52.284;20.890;2024-03-17T07:27:07;6.60;;;2.30;;
86601;SDS011;77266;52.284;20.890;2024-03-17T07:29:45;4.30;;;1.80;;
86601;SDS011;77266;52.284;20.890;2024-03-17T07:32:15;5.50;;;2.20;;
86601;SDS011;77266;52.284;20.890;2024-03-17T07:34:52;4.20;;;1.80;;
86601;SDS011;77266;52.284;20.890;2024-03-17T07:37:25;5.20;;;1.90;;
86601;SDS011;77266;52.284;20.890;2024-03-17T07:40:00;4.10;;;1.90;;
86601;SDS011;77266;52.284;20.890;2024-03-17T07:42:37;5.00;;;1.90;;
86601;SDS011;77266;52.284;20.890;2024-03-17T07:45:08;5.40;;;1.90;;
86601;SDS011;77266;52.284;20.890;2024-03-17T07:47:39;5.60;;;1.90;;
86601;SDS011;77266;52.284;20.890;2024-03-17T07:50:09;4.70;;;1.70;;
86601;SDS011;77266;52.284;20.890;2024-03-17T07:52:40;5.70;;;1.80;;
86601;SDS011;77266;52.284;20.890;2024-03-17T07:55:11;5.10;;;2.00;;
86601;SDS011;77266;52.284;20.890;2024-03-17T07:57:41;4.70;;;1.60;;
86601;SDS011;77266;52.284;20.890;2024-03-17T08:00:12;6.20;;;1.80;;
86601;SDS011;77266;52.284;20.890;2024-03-17T08:02:45;5.50;;;2.00;;
86601;SDS011;77266;52.284;20.890;2024-03-17T08:05:17;4.40;;;1.90;;
86601;SDS011;77266;52.284;20.890;2024-03-17T08:07:49;4.90;;;1.70;;
86601;SDS011;77266;52.284;20.890;2024-03-17T08:10:22;4.00;;;1.80;;
86601;SDS011;77266;52.284;20.890;2024-03-17T08:12:52;3.90;;;1.70;;
86601;SDS011;77266;52.284;20.890;2024-03-17T08:15:24;4.40;;;1.60;;
86601;SDS011;77266;52.284;20.890;2024-03-17T08:17:55;4.50;;;1.90;;
86601;SDS011;77266;52.284;20.890;2024-03-17T08:20:26;4.60;;;1.60;;
86601;SDS011;77266;52.284;20.890;2024-03-17T08:22:59;4.70;;;1.70;;
86601;SDS011;77266;52.284;20.890;2024-03-17T08:25:30;4.00;;;1.70;;
86601;SDS011;77266;52.284;20.890;2024-03-17T08:28:01;4.80;;;2.00;;
86601;SDS011;77266;52.284;20.890;2024-03-17T08:30:32;4.70;;;1.80;;
86601;SDS011;77266;52.284;20.890;2024-03-17T08:33:02;5.80;;;1.80;;
86601;SDS011;77266;52.284;20.890;2024-03-17T08:35:37;4.30;;;1.70;;
86601;SDS011;77266;52.284;20.890;2024-03-17T08:38:09;4.30;;;2.00;;
86601;SDS011;77266;52.284;20.890;2024-03-17T08:40:42;5.10;;;2.20;;
86601;SDS011;77266;52.284;20.890;2024-03-17T08:43:21;5.00;;;1.60;;
86601;SDS011;77266;52.284;20.890;2024-03-17T08:45:57;4.90;;;1.70;;
86601;SDS011;77266;52.284;20.890;2024-03-17T08:48:30;4.90;;;1.70;;
86601;SDS011;77266;52.284;20.890;2024-03-17T08:51:04;4.70;;;1.90;;
86601;SDS011;77266;52.284;20.890;2024-03-17T08:53:36;4.50;;;1.60;;
86601;SDS011;77266;52.284;20.890;2024-03-17T08:56:08;3.70;;;1.50;;
86601;SDS011;77266;52.284;20.890;2024-03-17T08:58:38;5.10;;;1.70;;
86601;SDS011;77266;52.284;20.890;2024-03-17T09:01:09;3.80;;;1.70;;
86601;SDS011;77266;52.284;20.890;2024-03-17T09:03:43;5.30;;;1.90;;
86601;SDS011;77266;52.284;20.890;2024-03-17T09:06:16;3.80;;;1.70;;
86601;SDS011;77266;52.284;20.890;2024-03-17T09:08:49;3.90;;;1.70;;
86601;SDS011;77266;52.284;20.890;2024-03-17T09:11:22;3.50;;;1.50;;
86601;SDS011;77266;52.284;20.890;2024-03-17T09:13:57;4.50;;;1.60;;
86601;SDS011;77266;52.284;20.890;2024-03-17T09:16:29;4.80;;;2.00;;
86601;SDS011;77266;52.284;20.890;2024-03-17T09:18:59;6.90;;;2.00;;
86601;SDS011;77266;52.284;20.890;2024-03-17T09:21:32;5.30;;;1.60;;
86601;SDS011;77266;52.284;20.890;2024-03-17T09:24:03;5.80;;;1.90;;
86601;SDS011;77266;52.284;20.890;2024-03-17T09:26:35;4.10;;;1.80;;
86601;SDS011;77266;52.284;20.890;2024-03-17T09:29:07;3.60;;;1.80;;
86601;SDS011;77266;52.284;20.890;2024-03-17T09:31:40;4.70;;;2.00;;
86601;SDS011;77266;52.284;20.890;2024-03-17T09:34:11;4.60;;;1.90;;
86601;SDS011;77266;52.284;20.890;2024-03-17T09:36:46;5.60;;;2.10;;
86601;SDS011;77266;52.284;20.890;2024-03-17T09:39:21;5.60;;;1.90;;
86601;SDS011;77266;52.284;20.890;2024-03-17T09:41:55;3.70;;;1.70;;
86601;SDS011;77266;52.284;20.890;2024-03-17T09:44:27;4.80;;;2.00;;
86601;SDS011;77266;52.284;20.890;2024-03-17T09:46:59;4.70;;;1.90;;
86601;SDS011;77266;52.284;20.890;2024-03-17T09:49:31;4.30;;;1.90;;
86601;SDS011;77266;52.284;20.890;2024-03-17T09:52:05;3.80;;;1.70;;
86601;SDS011;77266;52.284;20.890;2024-03-17T09:54:44;3.70;;;1.60;;
86601;SDS011;77266;52.284;20.890;2024-03-17T09:57:16;3.90;;;1.80;;
86601;SDS011;77266;52.284;20.890;2024-03-17T09:59:52;4.30;;;1.90;;
86601;SDS011;77266;52.284;20.890;2024-03-17T10:02:25;4.00;;;1.70;;
86601;SDS011;77266;52.284;20.890;2024-03-17T10:04:56;4.10;;;1.80;;
86601;SDS011;77266;52.284;20.890;2024-03-17T10:07:35;5.70;;;1.70;;
86601;SDS011;77266;52.284;20.890;2024-03-17T10:10:14;6.70;;;2.20;;
86601;SDS011;77266;52.284;20.890;2024-03-17T10:12:45;5.80;;;2.30;;
86601;SDS011;77266;52.284;20.890;2024-03-17T10:15:21;5.90;;;1.70;;
86601;SDS011;77266;52.284;20.890;2024-03-17T10:17:51;4.10;;;1.70;;
86601;SDS011;77266;52.284;20.890;2024-03-17T10:20:23;4.80;;;1.70;;
86601;SDS011;77266;52.284;20.890;2024-03-17T10:22:59;4.80;;;1.70;;
86601;SDS011;77266;52.284;20.890;2024-03-17T10:25:31;5.50;;;2.30;;
86601;SDS011;77266;52.284;20.890;2024-03-17T10:28:04;6.80;;;1.80;;
86601;SDS011;77266;52.284;20.890;2024-03-17T10:30:41;5.70;;;1.70;;
86601;SDS011;77266;52.284;20.890;2024-03-17T10:33:26;5.20;;;1.70;;
86601;SDS011;77266;52.284;20.890;2024-03-17T10:35:59;4.50;;;1.80;;
86601;SDS011;77266;52.284;20.890;2024-03-17T10:38:33;3.50;;;1.60;;
86601;SDS011;77266;52.284;20.890;2024-03-17T10:41:05;5.20;;;1.90;;
86601;SDS011;77266;52.284;20.890;2024-03-17T10:43:40;4.80;;;1.90;;
86601;SDS011;77266;52.284;20.890;2024-03-17T10:46:11;6.00;;;1.90;;
86601;SDS011;77266;52.284;20.890;2024-03-17T10:48:45;5.40;;;1.50;;
86601;SDS011;77266;52.284;20.890;2024-03-17T10:51:17;3.70;;;1.30;;
86601;SDS011;77266;52.284;20.890;2024-03-17T10:53:48;5.40;;;1.60;;
86601;SDS011;77266;52.284;20.890;2024-03-17T10:56:21;3.30;;;1.50;;
86601;SDS011;77266;52.284;20.890;2024-03-17T10:58:53;5.50;;;1.70;;
86601;SDS011;77266;52.284;20.890;2024-03-17T11:01:26;3.50;;;1.40;;
86601;SDS011;77266;52.284;20.890;2024-03-17T11:04:00;4.20;;;1.30;;
86601;SDS011;77266;52.284;20.890;2024-03-17T11:06:32;3.60;;;1.60;;
86601;SDS011;77266;52.284;20.890;2024-03-17T11:09:03;4.10;;;1.40;;
86601;SDS011;77266;52.284;20.890;2024-03-17T11:11:36;3.50;;;1.50;;
86601;SDS011;77266;52.284;20.890;2024-03-17T11:14:19;4.20;;;1.50;;
86601;SDS011;77266;52.284;20.890;2024-03-17T11:16:51;3.40;;;1.50;;
86601;SDS011;77266;52.284;20.890;2024-03-17T11:19:23;3.50;;;1.60;;
86601;SDS011;77266;52.284;20.890;2024-03-17T11:21:55;4.00;;;1.50;;
86601;SDS011;77266;52.284;20.890;2024-03-17T11:24:51;3.30;;;1.60;;
86601;SDS011;77266;52.284;20.890;2024-03-17T11:36:31;3.50;;;1.40;;
86601;SDS011;77266;52.284;20.890;2024-03-17T11:39:05;3.50;;;1.30;;
86601;SDS011;77266;52.284;20.890;2024-03-17T11:41:47;4.70;;;1.40;;
86601;SDS011;77266;52.284;20.890;2024-03-17T11:44:26;3.30;;;1.50;;
86601;SDS011;77266;52.284;20.890;2024-03-17T11:46:57;3.10;;;1.30;;
86601;SDS011;77266;52.284;20.890;2024-03-17T11:49:30;4.30;;;1.50;;
86601;SDS011;77266;52.284;20.890;2024-03-17T11:52:03;5.20;;;1.70;;
86601;SDS011;77266;52.284;20.890;2024-03-17T11:54:37;4.30;;;1.60;;
86601;SDS011;77266;52.284;20.890;2024-03-17T11:57:10;2.80;;;1.20;;
86601;SDS011;77266;52.284;20.890;2024-03-17T11:59:45;3.80;;;1.70;;
86601;SDS011;77266;52.284;20.890;2024-03-17T12:02:16;3.80;;;1.50;;
86601;SDS011;77266;52.284;20.890;2024-03-17T12:04:50;4.90;;;1.70;;
86601;SDS011;77266;52.284;20.890;2024-03-17T12:07:22;3.40;;;1.40;;
86601;SDS011;77266;52.284;20.890;2024-03-17T12:09:55;4.60;;;1.80;;
86601;SDS011;77266;52.284;20.890;2024-03-17T12:12:26;3.70;;;1.50;;
86601;SDS011;77266;52.284;20.890;2024-03-17T12:15:03;2.80;;;1.50;;
86601;SDS011;77266;52.284;20.890;2024-03-17T12:17:51;4.60;;;1.50;;
86601;SDS011;77266;52.284;20.890;2024-03-17T12:20:26;3.50;;;1.50;;
86601;SDS011;77266;52.284;20.890;2024-03-17T12:22:59;5.70;;;1.60;;
86601;SDS011;77266;52.284;20.890;2024-03-17T12:25:30;4.10;;;1.80;;
86601;SDS011;77266;52.284;20.890;2024-03-17T12:28:02;3.60;;;1.30;;
86601;SDS011;77266;52.284;20.890;2024-03-17T12:33:12;5.00;;;1.60;;
86601;SDS011;77266;52.284;20.890;2024-03-17T12:35:44;4.40;;;1.40;;
86601;SDS011;77266;52.284;20.890;2024-03-17T12:38:22;3.20;;;1.60;;
86601;SDS011;77266;52.284;20.890;2024-03-17T12:40:53;5.90;;;1.60;;
86601;SDS011;77266;52.284;20.890;2024-03-17T12:43:23;2.90;;;1.10;;
86601;SDS011;77266;52.284;20.890;2024-03-17T12:45:56;3.00;;;1.20;;
86601;SDS011;77266;52.284;20.890;2024-03-17T12:48:27;4.70;;;1.40;;
86601;SDS011;77266;52.284;20.890;2024-03-17T12:51:00;3.80;;;1.70;;
86601;SDS011;77266;52.284;20.890;2024-03-17T12:53:33;3.10;;;1.40;;
86601;SDS011;77266;52.284;20.890;2024-03-17T12:56:07;3.30;;;1.30;;
86601;SDS011;77266;52.284;20.890;2024-03-17T12:58:51;4.90;;;1.60;;
86601;SDS011;77266;52.284;20.890;2024-03-17T13:01:50;3.60;;;1.20;;
86601;SDS011;77266;52.284;20.890;2024-03-17T13:04:20;4.70;;;1.60;;
86601;SDS011;77266;52.284;20.890;2024-03-17T13:06:51;2.90;;;1.30;;
86601;SDS011;77266;52.284;20.890;2024-03-17T13:09:23;3.50;;;1.30;;
86601;SDS011;77266;52.284;20.890;2024-03-17T13:11:57;3.60;;;1.20;;
86601;SDS011;77266;52.284;20.890;2024-03-17T13:14:27;3.30;;;1.50;;
86601;SDS011;77266;52.284;20.890;2024-03-17T13:16:57;4.60;;;1.60;;
86601;SDS011;77266;52.284;20.890;2024-03-17T13:19:27;2.80;;;1.10;;
86601;SDS011;77266;52.284;20.890;2024-03-17T13:21:59;4.40;;;1.60;;
86601;SDS011;77266;52.284;20.890;2024-03-17T13:24:30;3.30;;;1.50;;
86601;SDS011;77266;52.284;20.890;2024-03-17T13:27:00;5.90;;;1.40;;
86601;SDS011;77266;52.284;20.890;2024-03-17T13:29:34;2.90;;;1.20;;
86601;SDS011;77266;52.284;20.890;2024-03-17T13:32:05;3.80;;;1.30;;
86601;SDS011;77266;52.284;20.890;2024-03-17T13:34:40;3.50;;;1.50;;
86601;SDS011;77266;52.284;20.890;2024-03-17T13:37:11;4.50;;;1.40;;
86601;SDS011;77266;52.284;20.890;2024-03-17T13:39:41;3.60;;;1.60;;
86601;SDS011;77266;52.284;20.890;2024-03-17T13:42:11;3.20;;;1.40;;
86601;SDS011;77266;52.284;20.890;2024-03-17T13:44:44;7.50;;;1.90;;
86601;SDS011;77266;52.284;20.890;2024-03-17T13:47:15;3.30;;;1.60;;
86601;SDS011;77266;52.284;20.890;2024-03-17T13:49:47;7.40;;;1.80;;
86601;SDS011;77266;52.284;20.890;2024-03-17T13:52:17;4.70;;;1.90;;
86601;SDS011;77266;52.284;20.890;2024-03-17T13:54:48;6.70;;;1.70;;
86601;SDS011;77266;52.284;20.890;2024-03-17T13:57:18;3.20;;;1.40;;
86601;SDS011;77266;52.284;20.890;2024-03-17T13:59:49;3.90;;;1.40;;
86601;SDS011;77266;52.284;20.890;2024-03-17T14:02:20;4.80;;;1.70;;
86601;SDS011;77266;52.284;20.890;2024-03-17T14:04:50;3.80;;;1.80;;
86601;SDS011;77266;52.284;20.890;2024-03-17T14:07:20;4.70;;;1.60;;
86601;SDS011;77266;52.284;20.890;2024-03-17T14:09:50;6.80;;;1.80;;
86601;SDS011;77266;52.284;20.890;2024-03-17T14:12:20;4.30;;;1.80;;
86601;SDS011;77266;52.284;20.890;2024-03-17T14:14:54;4.90;;;1.40;;
86601;SDS011;77266;52.284;20.890;2024-03-17T14:17:24;4.10;;;1.70;;
86601;SDS011;77266;52.284;20.890;2024-03-17T14:19:54;5.90;;;1.80;;
86601;SDS011;77266;52.284;20.890;2024-03-17T14:22:24;4.00;;;1.70;;
86601;SDS011;77266;52.284;20.890;2024-03-17T14:24:54;6.60;;;2.10;;
86601;SDS011;77266;52.284;20.890;2024-03-17T14:27:24;5.60;;;1.80;;
86601;SDS011;77266;52.284;20.890;2024-03-17T14:29:55;4.60;;;1.90;;
86601;SDS011;77266;52.284;20.890;2024-03-17T14:32:25;5.70;;;2.10;;
86601;SDS011;77266;52.284;20.890;2024-03-17T14:34:56;2.80;;;1.80;;
86601;SDS011;77266;52.284;20.890;2024-03-17T14:37:27;4.80;;;1.90;;
86601;SDS011;77266;52.284;20.890;2024-03-17T14:39:57;4.10;;;2.10;;
86601;SDS011;77266;52.284;20.890;2024-03-17T14:42:27;4.80;;;2.00;;
86601;SDS011;77266;52.284;20.890;2024-03-17T14:44:58;4.50;;;2.00;;
86601;SDS011;77266;52.284;20.890;2024-03-17T14:47:28;4.90;;;2.20;;
86601;SDS011;77266;52.284;20.890;2024-03-17T14:49:59;4.30;;;2.10;;
86601;SDS011;77266;52.284;20.890;2024-03-17T14:52:29;4.40;;;2.20;;
86601;SDS011;77266;52.284;20.890;2024-03-17T14:55:00;4.30;;;2.10;;
86601;SDS011;77266;52.284;20.890;2024-03-17T14:57:31;5.70;;;2.40;;
86601;SDS011;77266;52.284;20.890;2024-03-17T15:00:01;5.10;;;2.00;;
86601;SDS011;77266;52.284;20.890;2024-03-17T15:02:41;4.50;;;2.10;;
86601;SDS011;77266;52.284;20.890;2024-03-17T15:05:11;3.90;;;1.80;;
86601;SDS011;77266;52.284;20.890;2024-03-17T15:07:45;6.70;;;2.20;;
86601;SDS011;77266;52.284;20.890;2024-03-17T15:10:16;3.10;;;1.50;;
86601;SDS011;77266;52.284;20.890;2024-03-17T15:12:48;4.40;;;2.10;;
86601;SDS011;77266;52.284;20.890;2024-03-17T15:15:18;5.10;;;2.00;;
86601;SDS011;77266;52.284;20.890;2024-03-17T15:17:51;6.10;;;1.70;;